In Rescue
 
Open Full Screen Window  High Contrast Mode
Wind Gusting 18 knots
10
May 13, 2021 9:46 AM CDT
Weather Information
Wind Direction
  270 °
Wind Speed
  10 kt (12 mph)
Wind Gust
  18 kt (21 mph)
Altimeter
30.29 in
Visibility
10 SM
Temperature
17° C
63° F
Dewpoint
-03° C
27° F
Humidity
25%
1hr Rain Fall
00.00 in.
24hr Rain Fall
00.00 in.
Sky Condition
Clear
VFR

METAR KCOQ 131446Z AUTO 27010G18KT 10SM CLR 17/M03 A3029 RMK AO2 TSNO

FAA Disclaimer: The data displayed is for advisory purposes only and is not to be used for flight planning or operations.